Terminal Aerodrome Forecast
Issued by NWS

Home | Current Version | Previous Version | Graphics & Text | Print | Product List | Glossary On
Versions: 1 2 3 4 5 6 7 8 9 10 11 12 13 14 15 16 17 18
000
FTUS43 KICT 052340
TAFSLN
TAF
KSLN 052340Z 0600/0624 15017KT P6SM SCT050 OVC100
     FM060300 19009KT 6SM -RA OVC015
     FM060600 17009KT 3SM RA OVC008=

USA.gov is the U.S. government's official web portal to all federal, state and local government web resources and services.